Terminal Aerodrome Forecast
Issued by NWS

Home | Current Version | Previous Version | Text Only | Print | Product List | Glossary On
Versions: 1 2 3 4 5 6 7 8 9 10 11 12 13
390
FTUS45 KABQ 250536
TAFTCC
TAF
KTCC 250536Z 2506/2606 04016KT P6SM OVC030
     FM251500 04009KT P6SM BKN040
     FM251900 36007KT P6SM FEW120
     FM260300 21006KT P6SM SKC=

USA.gov is the U.S. government's official web portal to all federal, state and local government web resources and services.